Time;durP1;ratioP1;P1;durP2;ratioP2;P2;SDS_P1;SDS_P2;PMS_P1;PMS_P2;Temp;Humidity;BMP_temperature;BMP_pressure;BME280_temperature;BME280_humidity;BME280_pressure;Samples;Min_cycle;Max_cycle;Signal;HPM_P1;HPM_P2
2021/09/12 00:00:33;;;;;;;24.60;20.00;;;;;;;15.45;81.35;100416.61;94511;1192;80972;-62
2021/09/12 00:02:46;;;;;;;23.40;20.90;;;;;;;15.43;81.50;100411.05;94573;1192;81591;-62
2021/09/12 00:04:51;;;;;;;25.40;22.00;;;;;;;15.45;81.55;100414.27;94547;1192;98256;-62
2021/09/12 00:06:55;;;;;;;24.60;22.00;;;;;;;15.50;81.57;100414.44;94510;1192;85389;-61
2021/09/12 00:09:00;;;;;;;26.10;22.30;;;;;;;15.52;81.59;100415.30;94572;1193;93560;-61
2021/09/12 00:11:04;;;;;;;23.60;21.00;;;;;;;15.51;81.62;100416.73;94492;1192;82124;-61
2021/09/12 00:13:08;;;;;;;25.10;22.60;;;;;;;15.52;81.69;100419.28;94548;1192;80314;-61
2021/09/12 00:15:15;;;;;;;28.50;23.00;;;;;;;15.57;81.70;100421.25;94529;1192;95581;-78
2021/09/12 00:17:19;;;;;;;27.10;23.50;;;;;;;15.58;81.72;100424.01;94597;1192;88118;-80
2021/09/12 00:19:24;;;;;;;26.80;22.80;;;;;;;15.60;81.75;100425.59;94500;1192;94569;-61
2021/09/12 00:21:29;;;;;;;26.20;23.30;;;;;;;15.58;81.74;100423.88;94596;1192;81351;-63
2021/09/12 00:23:33;;;;;;;24.30;21.50;;;;;;;15.56;81.71;100425.50;94330;1192;81339;-62
2021/09/12 00:25:37;;;;;;;27.70;22.60;;;;;;;15.56;81.73;100423.73;94509;1192;97823;-63
2021/09/12 00:27:42;;;;;;;26.30;22.40;;;;;;;15.55;81.72;100424.02;94583;1192;87084;-61
2021/09/12 00:29:46;;;;;;;27.30;24.40;;;;;;;15.50;81.78;100425.37;94573;1193;94901;-61
2021/09/12 00:31:51;;;;;;;25.90;23.00;;;;;;;15.46;81.83;100424.27;94576;1192;80869;-61
2021/09/12 00:33:55;;;;;;;25.60;22.90;;;;;;;15.44;81.77;100425.13;94336;1193;81722;-62
2021/09/12 00:36:00;;;;;;;25.00;22.30;;;;;;;15.44;81.75;100426.39;94529;1184;97666;-62
2021/09/12 00:38:04;;;;;;;27.30;24.40;;;;;;;15.43;81.87;100422.91;94522;1184;87810;-62
2021/09/12 00:40:13;;;;;;;26.80;24.10;;;;;;;15.43;81.90;100421.08;94520;1192;94396;-76
2021/09/12 00:42:20;;;;;;;27.40;24.50;;;;;;;15.44;81.85;100420.95;94556;1193;79081;-75
2021/09/12 00:44:25;;;;;;;28.10;24.60;;;;;;;15.43;81.98;100419.60;94556;1192;81144;-62
2021/09/12 00:46:29;;;;;;;26.70;23.80;;;;;;;15.41;81.93;100422.58;94574;1192;100228;-62
2021/09/12 00:48:37;;;;;;;26.10;23.30;;;;;;;15.41;81.89;100419.86;94604;1193;86563;-61
2021/09/12 00:50:41;;;;;;;27.60;24.20;;;;;;;15.42;82.03;100423.30;94571;1193;94140;-61
2021/09/12 00:52:50;;;;;;;27.80;25.00;;;;;;;15.40;82.06;100421.84;94561;1193;78709;-60
2021/09/12 00:54:57;;;;;;;29.60;25.60;;;;;;;15.41;82.16;100423.06;94519;1192;80604;-61
2021/09/12 00:57:02;;;;;;;30.90;25.40;;;;;;;15.42;82.20;100419.29;94542;1192;97155;-62
2021/09/12 00:59:15;;;;;;;27.80;24.80;;;;;;;15.41;82.23;100419.91;94546;1192;86681;-62
2021/09/12 01:01:19;;;;;;;28.20;25.20;;;;;;;15.44;82.24;100417.94;94548;1193;93289;-61
2021/09/12 01:03:23;;;;;;;27.70;24.60;;;;;;;15.40;82.14;100416.78;94573;1192;78278;-62
2021/09/12 01:05:31;;;;;;;28.70;25.70;;;;;;;15.39;82.21;100414.27;94558;1192;80911;-62
2021/09/12 01:07:35;;;;;;;28.40;25.30;;;;;;;15.40;82.17;100412.76;94570;1192;97098;-62
2021/09/12 01:09:42;;;;;;;29.30;24.50;;;;;;;15.42;82.12;100416.35;94573;1193;87670;-74
2021/09/12 01:11:47;;;;;;;30.10;25.50;;;;;;;15.41;82.13;100415.73;94536;1193;93682;-75
2021/09/12 01:13:51;;;;;;;28.70;25.80;;;;;;;15.40;82.06;100416.06;94575;1193;78105;-74
2021/09/12 01:15:55;;;;;;;32.40;25.90;;;;;;;15.40;82.27;100415.61;94528;1193;82392;-61
2021/09/12 01:18:03;;;;;;;28.30;25.40;;;;;;;15.42;82.18;100414.89;94589;1192;96608;-62
2021/09/12 01:20:11;;;;;;;26.50;23.70;;;;;;;15.39;82.12;100414.77;94571;1193;87523;-61
2021/09/12 01:22:15;;;;;;;27.30;24.60;;;;;;;15.38;82.11;100413.49;94587;1192;93061;-62
2021/09/12 01:24:19;;;;;;;29.60;24.70;;;;;;;15.37;82.15;100409.05;94603;1193;78907;-62
2021/09/12 01:26:25;;;;;;;28.50;25.40;;;;;;;15.35;82.15;100413.30;94550;1177;80847;-63
2021/09/12 01:28:29;;;;;;;30.80;25.80;;;;;;;15.35;82.07;100413.71;94560;1193;96906;-63
2021/09/12 01:30:34;;;;;;;27.80;25.00;;;;;;;15.32;82.19;100414.11;94560;1192;86609;-75
2021/09/12 01:32:38;;;;;;;26.60;23.90;;;;;;;15.27;82.16;100414.60;94563;1193;94263;-76
2021/09/12 01:34:43;;;;;;;28.00;25.00;;;;;;;15.26;82.11;100413.56;94547;1193;79213;-62
2021/09/12 01:36:47;;;;;;;27.30;23.70;;;;;;;15.20;82.20;100409.38;94574;1192;81033;-61
2021/09/12 01:38:51;;;;;;;26.60;23.80;;;;;;;15.19;82.27;100409.88;94580;1192;97577;-60
2021/09/12 01:40:55;;;;;;;28.40;24.10;;;;;;;15.18;82.31;100407.27;94537;1193;86458;-61
2021/09/12 01:43:00;;;;;;;27.80;24.80;;;;;;;15.15;82.30;100407.48;94569;1192;92605;-62
2021/09/12 01:45:07;;;;;;;27.30;23.70;;;;;;;15.15;82.14;100402.30;94557;1192;80398;-76
2021/09/12 01:47:12;;;;;;;25.60;22.90;;;;;;;15.11;82.24;100400.39;94560;1192;81289;-75
2021/09/12 01:49:16;;;;;;;25.10;22.50;;;;;;;15.09;82.38;100400.98;94576;1193;96445;-68
2021/09/12 01:51:20;;;;;;;24.10;21.40;;;;;;;15.13;82.38;100400.80;94624;1192;87765;-63
2021/09/12 01:53:24;;;;;;;24.50;21.80;;;;;;;15.15;82.46;100399.20;94548;1192;93785;-61
2021/09/12 01:55:32;;;;;;;22.60;20.20;;;;;;;15.14;82.45;100395.35;94581;1192;82463;-73
2021/09/12 01:57:36;;;;;;;23.00;19.50;;;;;;;15.16;82.49;100398.14;94575;1192;81949;-74
2021/09/12 01:59:40;;;;;;;23.20;20.80;;;;;;;15.17;82.51;100399.38;94602;1192;96928;-75
2021/09/12 02:01:45;;;;;;;23.90;20.30;;;;;;;15.21;82.59;100397.60;94578;1193;87273;-74
2021/09/12 02:03:52;;;;;;;22.40;20.10;;;;;;;15.21;82.58;100400.33;94564;1192;93591;-74
2021/09/12 02:05:57;;;;;;;24.00;19.40;;;;;;;15.19;82.52;100403.73;94591;1193;82547;-73
2021/09/12 02:08:01;;;;;;;23.10;19.00;;;;;;;15.19;82.64;100401.30;94581;1192;80851;-75
2021/09/12 02:10:11;;;;;;;20.80;18.60;;;;;;;15.18;82.59;100402.40;94584;1192;98772;-74
2021/09/12 02:12:15;;;;;;;23.40;18.80;;;;;;;15.18;82.62;100406.00;94600;1192;87398;-75
2021/09/12 02:14:22;;;;;;;21.50;19.20;;;;;;;15.16;82.81;100404.39;94589;1193;94512;-73
2021/09/12 02:16:26;;;;;;;23.50;20.10;;;;;;;15.16;82.75;100399.66;94566;1192;80980;-71
2021/09/12 02:18:34;;;;;;;22.50;20.20;;;;;;;15.16;82.79;100400.48;94617;1192;81464;-73
2021/09/12 02:20:38;;;;;;;22.10;19.70;;;;;;;15.11;82.72;100401.61;94590;1193;97179;-74
2021/09/12 02:22:43;;;;;;;22.70;19.90;;;;;;;15.07;82.64;100399.45;94615;1193;92282;-74
2021/09/12 02:24:47;;;;;;;22.40;20.20;;;;;;;15.03;82.70;100394.36;94576;1192;93924;-62
2021/09/12 02:26:51;;;;;;;25.80;20.90;;;;;;;15.02;82.80;100395.52;94570;1193;79586;-63
2021/09/12 02:28:55;;;;;;;24.50;21.70;;;;;;;15.04;82.79;100395.65;94564;1192;80493;-63
2021/09/12 02:30:59;;;;;;;22.60;19.90;;;;;;;15.07;82.68;100396.73;94579;1192;97052;-74
2021/09/12 02:33:03;;;;;;;23.30;20.90;;;;;;;15.08;82.71;100395.52;94610;1193;87273;-74
2021/09/12 02:35:10;;;;;;;25.30;20.90;;;;;;;15.10;82.74;100395.58;94562;1192;93102;-75
2021/09/12 02:37:14;;;;;;;26.00;21.70;;;;;;;15.13;82.74;100396.36;94600;1193;77926;-73
2021/09/12 02:39:18;;;;;;;23.90;21.40;;;;;;;15.16;82.77;100396.63;94591;1192;82036;-62
2021/09/12 02:41:25;;;;;;;24.30;21.70;;;;;;;15.20;82.96;100393.81;94603;1193;98131;-63
2021/09/12 02:43:30;;;;;;;23.00;20.00;;;;;;;15.21;82.92;100394.46;94632;1192;88624;-64
2021/09/12 02:45:34;;;;;;;23.80;21.40;;;;;;;15.20;82.87;100397.70;94621;1192;94898;-63
2021/09/12 02:47:39;;;;;;;24.70;22.10;;;;;;;15.23;82.95;100396.88;94623;1193;78901;-66
2021/09/12 02:49:46;;;;;;;25.00;22.00;;;;;;;15.26;82.96;100398.02;94607;1192;82327;-62
2021/09/12 02:51:50;;;;;;;23.70;21.40;;;;;;;15.27;82.83;100400.20;94589;1192;97771;-63
2021/09/12 02:53:54;;;;;;;24.80;22.20;;;;;;;15.27;82.86;100403.21;94565;1193;87945;-63
2021/09/12 02:55:58;;;;;;;24.00;20.50;;;;;;;15.25;82.98;100393.17;94591;1192;94320;-74
2021/09/12 02:58:02;;;;;;;24.30;21.70;;;;;;;15.24;82.94;100394.86;94618;1192;78450;-77
2021/09/12 03:00:10;;;;;;;25.90;23.00;;;;;;;15.22;83.07;100401.56;94612;1192;80491;-77
2021/09/12 03:02:14;;;;;;;24.80;22.20;;;;;;;15.24;83.12;100398.21;94573;1192;97690;-74
2021/09/12 03:04:18;;;;;;;23.90;21.30;;;;;;;15.24;83.07;100402.06;94597;1193;87833;-73
2021/09/12 03:06:22;;;;;;;22.20;20.00;;;;;;;15.23;82.98;100403.88;94540;1192;94193;-72
2021/09/12 03:08:26;;;;;;;23.90;21.30;;;;;;;15.22;83.05;100403.20;94623;1192;78064;-71
2021/09/12 03:10:30;;;;;;;24.30;21.70;;;;;;;15.22;83.00;100406.34;94583;1192;80428;-70
2021/09/12 03:12:35;;;;;;;26.30;21.80;;;;;;;15.23;83.08;100406.77;94675;1193;97368;-74
2021/09/12 03:14:39;;;;;;;24.40;21.80;;;;;;;15.22;83.09;100406.10;94612;1192;87335;-61
2021/09/12 03:16:43;;;;;;;24.80;21.80;;;;;;;15.21;83.06;100404.41;94596;1192;93245;-63
2021/09/12 03:18:47;;;;;;;24.20;21.70;;;;;;;15.21;83.20;100402.41;94560;1193;80878;-62
2021/09/12 03:20:52;;;;;;;26.40;20.50;;;;;;;15.22;83.15;100404.16;94604;1192;82159;-61
2021/09/12 03:22:59;;;;;;;25.00;21.90;;;;;;;15.21;83.17;100402.45;94618;1192;97852;-63
2021/09/12 03:25:03;;;;;;;24.10;21.40;;;;;;;15.23;83.19;100404.58;94593;1192;88218;-71
2021/09/12 03:27:08;;;;;;;24.70;22.10;;;;;;;15.22;83.31;100409.91;94598;1192;93828;-70
2021/09/12 03:29:15;;;;;;;23.40;20.80;;;;;;;15.22;83.24;100409.77;94580;1192;81697;-69
2021/09/12 03:31:19;;;;;;;23.50;21.10;;;;;;;15.23;83.12;100412.04;94624;1192;82200;-69
2021/09/12 03:33:23;;;;;;;23.50;21.10;;;;;;;15.23;83.05;100411.48;94594;1192;97104;-71
2021/09/12 03:35:28;;;;;;;24.60;22.00;;;;;;;15.21;83.15;100415.61;94598;1192;86789;-61
2021/09/12 03:37:32;;;;;;;25.10;22.50;;;;;;;15.18;83.20;100415.46;94569;1193;93724;-62
2021/09/12 03:39:36;;;;;;;24.60;21.90;;;;;;;15.15;83.28;100418.19;94618;1193;79900;-62
2021/09/12 03:41:40;;;;;;;23.40;20.50;;;;;;;15.12;83.10;100417.88;94557;1192;81895;-61
2021/09/12 03:43:44;;;;;;;23.90;21.20;;;;;;;15.10;83.12;100415.89;94614;1192;96569;-63
2021/09/12 03:45:49;;;;;;;22.90;20.50;;;;;;;15.07;83.25;100414.64;94614;1192;86577;-68
2021/09/12 03:47:53;;;;;;;24.80;22.30;;;;;;;15.05;83.25;100417.63;94610;1192;94530;-73
2021/09/12 03:50:00;;;;;;;24.70;22.20;;;;;;;15.02;83.15;100417.48;94599;1193;80868;-61
2021/09/12 03:52:06;;;;;;;24.70;22.10;;;;;;;14.97;83.24;100415.84;94591;1192;80908;-61
2021/09/12 03:54:10;;;;;;;23.50;21.00;;;;;;;14.95;83.24;100413.88;94599;1193;97735;-59
2021/09/12 03:56:17;;;;;;;23.40;21.00;;;;;;;14.94;83.23;100415.09;94603;1192;87364;-68
2021/09/12 03:58:21;;;;;;;24.20;21.80;;;;;;;14.91;83.31;100408.78;94644;1193;94766;-71
2021/09/12 04:00:26;;;;;;;24.40;21.90;;;;;;;14.92;83.35;100409.33;94573;1192;77838;-70
2021/09/12 04:02:30;;;;;;;24.00;21.40;;;;;;;14.93;83.43;100413.97;94599;1192;81267;-70
2021/09/12 04:04:37;;;;;;;23.80;21.30;;;;;;;14.92;83.42;100412.88;94595;1192;96383;-70
2021/09/12 04:06:41;;;;;;;22.60;20.30;;;;;;;14.92;83.42;100414.68;94609;1192;87631;-68
2021/09/12 04:08:45;;;;;;;23.20;20.70;;;;;;;14.91;83.37;100416.62;94636;1192;93513;-74
2021/09/12 04:10:49;;;;;;;23.40;21.00;;;;;;;14.91;83.42;100420.09;94581;1192;80093;-61
2021/09/12 04:12:53;;;;;;;24.00;21.50;;;;;;;14.90;83.57;100419.52;94597;1193;81229;-62
2021/09/12 04:14:57;;;;;;;24.30;21.70;;;;;;;14.88;83.58;100418.35;94614;1192;97073;-70
2021/09/12 04:17:02;;;;;;;23.70;20.90;;;;;;;14.87;83.49;100418.09;94588;1192;87734;-68
2021/09/12 04:19:06;;;;;;;23.20;20.70;;;;;;;14.86;83.57;100421.27;94596;1192;94066;-71
2021/09/12 04:21:10;;;;;;;22.80;20.50;;;;;;;14.85;83.56;100418.29;94614;1192;79280;-60
2021/09/12 04:23:17;;;;;;;24.60;21.90;;;;;;;14.86;83.66;100423.50;94629;1192;80676;-61
2021/09/12 04:25:22;;;;;;;25.20;22.60;;;;;;;14.84;83.67;100432.16;94590;1193;95646;-60
2021/09/12 04:27:26;;;;;;;23.40;20.90;;;;;;;14.83;83.66;100432.14;94621;1192;87427;-61
2021/09/12 04:29:30;;;;;;;26.60;22.50;;;;;;;14.84;83.59;100433.43;94581;1192;93692;-70
2021/09/12 04:31:34;;;;;;;24.50;22.00;;;;;;;14.88;83.65;100432.66;94621;1192;80399;-70
2021/09/12 04:33:38;;;;;;;23.30;21.00;;;;;;;14.92;83.77;100430.96;94634;1193;79602;-68
2021/09/12 04:35:43;;;;;;;24.20;21.60;;;;;;;14.98;83.76;100427.83;94611;1192;98007;-61
2021/09/12 04:37:47;;;;;;;23.60;21.20;;;;;;;15.01;83.89;100428.82;94592;1192;88338;-63
2021/09/12 04:39:51;;;;;;;23.50;21.20;;;;;;;15.09;83.97;100426.89;94543;1192;95467;-70
2021/09/12 04:41:55;;;;;;;24.90;21.70;;;;;;;15.19;84.01;100427.98;94595;1192;80355;-70
2021/09/12 04:43:59;;;;;;;24.30;21.50;;;;;;;15.26;83.95;100430.02;94596;1192;80740;-68
2021/09/12 04:46:03;;;;;;;23.70;21.20;;;;;;;15.32;83.97;100426.88;94605;1192;97728;-69
2021/09/12 04:48:08;;;;;;;24.80;22.00;;;;;;;15.38;84.11;100425.21;94592;1192;87560;-69
2021/09/12 04:50:15;;;;;;;24.80;21.80;;;;;;;15.49;84.00;100423.33;94561;1192;94624;-69
2021/09/12 04:52:19;;;;;;;26.00;21.90;;;;;;;15.54;83.94;100425.14;94578;1192;79704;-69
2021/09/12 04:54:23;;;;;;;25.50;21.40;;;;;;;15.60;83.94;100427.73;94626;1192;81852;-68
2021/09/12 04:56:27;;;;;;;24.50;21.90;;;;;;;15.64;83.94;100430.88;94615;1193;98524;-69
2021/09/12 04:58:31;;;;;;;23.10;20.70;;;;;;;15.69;83.93;100428.54;94611;1192;88335;-68
2021/09/12 05:00:35;;;;;;;23.30;21.00;;;;;;;15.78;83.83;100422.41;94606;1192;92691;-64
2021/09/12 05:02:40;;;;;;;23.00;20.70;;;;;;;15.87;83.88;100423.55;94598;1192;81011;-63
2021/09/12 05:04:44;;;;;;;24.00;21.50;;;;;;;15.98;83.84;100421.99;94638;1192;80578;-63
2021/09/12 05:06:51;;;;;;;24.10;21.80;;;;;;;16.08;83.91;100422.91;94599;1192;97227;-63
2021/09/12 05:08:56;;;;;;;24.80;22.20;;;;;;;16.21;83.96;100428.39;94607;1193;87125;-65
2021/09/12 05:11:00;;;;;;;24.40;21.80;;;;;;;16.62;84.35;100424.72;94578;1193;93416;-62
2021/09/12 05:13:04;;;;;;;24.10;21.70;;;;;;;17.39;84.69;100428.73;94613;1192;79753;-63
2021/09/12 05:15:11;;;;;;;24.80;22.10;;;;;;;18.21;84.13;100432.14;94628;1192;80331;-63
2021/09/12 05:17:15;;;;;;;24.00;21.60;;;;;;;18.95;83.49;100427.71;94583;1192;97247;-62
2021/09/12 05:19:19;;;;;;;25.00;22.50;;;;;;;19.59;82.45;100428.17;94547;1192;88019;-63
2021/09/12 05:21:23;;;;;;;23.80;21.20;;;;;;;19.84;81.43;100424.08;94624;1192;92543;-62
2021/09/12 05:23:28;;;;;;;22.70;20.50;;;;;;;19.98;80.36;100421.98;94275;1192;78920;-60
2021/09/12 05:25:32;;;;;;;22.20;20.10;;;;;;;19.95;79.33;100422.00;94604;1187;80914;-61
2021/09/12 05:27:37;;;;;;;21.80;19.80;;;;;;;19.78;78.76;100421.39;94658;1192;97768;-60
2021/09/12 05:29:41;;;;;;;23.90;21.40;;;;;;;19.39;78.62;100420.80;94641;1193;86849;-61
2021/09/12 05:31:48;;;;;;;24.00;21.50;;;;;;;19.08;78.69;100416.95;94581;1192;94646;-61
2021/09/12 05:33:53;;;;;;;22.40;20.10;;;;;;;18.80;78.78;100422.91;94601;1193;79917;-62
2021/09/12 05:35:57;;;;;;;21.00;18.70;;;;;;;18.61;78.88;100426.83;94616;1192;80639;-69
2021/09/12 05:38:02;;;;;;;23.10;20.90;;;;;;;18.47;79.20;100431.42;94601;1192;97787;-69
2021/09/12 05:40:09;;;;;;;23.60;21.30;;;;;;;18.42;79.26;100430.54;94621;1193;87186;-69
2021/09/12 05:42:14;;;;;;;23.90;21.40;;;;;;;18.39;79.31;100426.69;94615;1193;93619;-72
2021/09/12 05:44:18;;;;;;;22.40;20.20;;;;;;;18.38;79.35;100423.70;94614;1192;80243;-62
2021/09/12 05:46:22;;;;;;;22.20;20.00;;;;;;;18.38;79.30;100426.40;94584;1192;80836;-61
2021/09/12 05:48:26;;;;;;;24.10;20.50;;;;;;;18.42;79.42;100428.77;94626;1192;96558;-61
2021/09/12 05:50:33;;;;;;;24.60;21.30;;;;;;;18.45;79.49;100421.52;94605;1192;88185;-70
2021/09/12 05:52:37;;;;;;;22.30;20.00;;;;;;;18.48;79.56;100421.39;94609;1192;93871;-71
2021/09/12 05:54:41;;;;;;;22.70;20.30;;;;;;;18.61;79.63;100420.94;94618;1192;80863;-61
2021/09/12 05:56:47;;;;;;;23.70;21.40;;;;;;;18.83;79.28;100422.17;94637;1192;81793;-62
2021/09/12 05:58:52;;;;;;;23.90;21.30;;;;;;;18.99;79.23;100421.66;94641;1192;97476;-61
2021/09/12 06:00:59;;;;;;;23.30;21.00;;;;;;;19.03;79.09;100419.88;94575;1192;87957;-61
2021/09/12 06:03:03;;;;;;;23.70;21.30;;;;;;;19.07;79.16;100422.31;94600;1192;93672;-61
2021/09/12 06:05:10;;;;;;;23.90;21.60;;;;;;;19.13;78.99;100426.86;94593;1193;79116;-71
2021/09/12 06:07:14;;;;;;;24.70;22.30;;;;;;;19.19;78.84;100425.08;94623;1192;81708;-72
2021/09/12 06:09:22;;;;;;;23.20;20.90;;;;;;;19.24;78.70;100426.98;94602;1192;97049;-71
2021/09/12 06:11:26;;;;;;;23.70;21.30;;;;;;;19.27;78.56;100427.57;94586;1192;87021;-72
2021/09/12 06:13:31;;;;;;;23.80;21.20;;;;;;;19.31;78.71;100428.47;94618;1192;92892;-73
2021/09/12 06:15:38;;;;;;;24.90;22.20;;;;;;;19.35;78.54;100427.23;94555;1192;79307;-72
2021/09/12 06:17:42;;;;;;;24.50;21.90;;;;;;;19.38;78.53;100429.84;94616;1192;80764;-72
2021/09/12 06:19:46;;;;;;;24.60;21.80;;;;;;;19.49;78.56;100432.89;94609;1192;98375;-61
2021/09/12 06:21:50;;;;;;;24.00;21.50;;;;;;;19.62;78.44;100434.27;94607;1192;88774;-60
2021/09/12 06:23:54;;;;;;;22.90;20.60;;;;;;;19.72;78.31;100432.47;94619;1192;94010;-61
2021/09/12 06:25:59;;;;;;;22.70;20.40;;;;;;;19.89;78.25;100432.65;94586;1192;78436;-62
2021/09/12 06:28:06;;;;;;;22.50;20.10;;;;;;;20.12;77.92;100431.96;94602;1192;80792;-61
2021/09/12 06:30:15;;;;;;;24.30;21.70;;;;;;;20.22;77.63;100432.90;94602;1192;97645;-71
2021/09/12 06:32:19;;;;;;;23.60;21.20;;;;;;;20.30;77.42;100432.50;94622;1192;86662;-74
2021/09/12 06:34:24;;;;;;;24.10;21.70;;;;;;;20.32;77.25;100432.53;94585;1192;94089;-72
2021/09/12 06:36:28;;;;;;;23.80;21.40;;;;;;;20.35;77.06;100434.41;94569;1193;78083;-68
2021/09/12 06:38:32;;;;;;;23.40;21.10;;;;;;;20.40;77.13;100438.62;94594;1192;81433;-75
2021/09/12 06:40:36;;;;;;;23.40;21.00;;;;;;;20.47;76.99;100438.08;94563;1192;97298;-61
2021/09/12 06:42:43;;;;;;;24.50;20.90;;;;;;;20.58;77.00;100433.95;94608;1192;87480;-62
2021/09/12 06:44:47;;;;;;;23.50;21.10;;;;;;;20.54;76.79;100431.30;94623;1192;92687;-61
2021/09/12 06:46:51;;;;;;;23.90;21.60;;;;;;;20.65;76.77;100438.76;94578;1192;79601;-62
2021/09/12 06:48:59;;;;;;;24.10;21.30;;;;;;;20.81;76.60;100438.27;94663;1192;82038;-61
2021/09/12 06:51:03;;;;;;;24.40;21.70;;;;;;;20.95;76.56;100444.20;94544;1192;97881;-74
2021/09/12 06:53:07;;;;;;;24.40;22.10;;;;;;;21.06;76.28;100445.73;94637;1192;87632;-75
2021/09/12 06:55:13;;;;;;;23.20;20.90;;;;;;;21.16;76.15;100449.98;94632;1192;93732;-61
2021/09/12 06:57:21;;;;;;;24.20;21.70;;;;;;;21.39;75.69;100449.62;94643;1192;77748;-62
2021/09/12 06:59:25;;;;;;;24.90;22.30;;;;;;;21.57;75.65;100449.91;94616;1192;81675;-64
2021/09/12 07:01:29;;;;;;;26.40;22.00;;;;;;;21.75;75.11;100450.46;94614;1192;98153;-67
2021/09/12 07:03:33;;;;;;;24.00;21.70;;;;;;;21.98;74.78;100447.95;94640;1192;87889;-65
2021/09/12 07:05:37;;;;;;;23.90;21.40;;;;;;;22.02;74.65;100447.11;94568;1193;93700;-67
2021/09/12 07:07:41;;;;;;;25.00;22.40;;;;;;;22.04;74.57;100449.27;94622;1192;78637;-66
2021/09/12 07:09:46;;;;;;;24.10;21.70;;;;;;;22.04;74.42;100447.56;94617;1192;81790;-71
2021/09/12 07:11:50;;;;;;;26.00;23.00;;;;;;;22.16;74.45;100443.46;94608;1192;96869;-65
2021/09/12 07:13:54;;;;;;;24.70;22.40;;;;;;;22.45;74.43;100443.40;94634;1192;87056;-67
2021/09/12 07:16:01;;;;;;;24.40;22.00;;;;;;;22.63;73.97;100439.55;94525;1192;92469;-68
2021/09/12 07:18:05;;;;;;;24.80;22.30;;;;;;;22.72;73.81;100434.70;94546;1192;80815;-68
2021/09/12 07:20:13;;;;;;;23.20;20.90;;;;;;;22.84;73.79;100435.70;94607;1192;83364;-66
2021/09/12 07:22:17;;;;;;;24.30;21.90;;;;;;;22.91;73.58;100431.86;94658;1192;97922;-67
2021/09/12 07:24:24;;;;;;;23.90;21.70;;;;;;;22.99;73.46;100431.73;94656;1192;87801;-67
2021/09/12 07:26:29;;;;;;;24.90;22.50;;;;;;;23.03;73.03;100434.45;94561;1192;92867;-67
2021/09/12 07:28:33;;;;;;;24.90;22.30;;;;;;;23.06;72.77;100435.55;94606;1192;79272;-67
2021/09/12 07:30:37;;;;;;;23.80;21.50;;;;;;;23.15;72.65;100436.64;94596;1192;82001;-68
2021/09/12 07:32:42;;;;;;;25.00;22.50;;;;;;;23.34;72.42;100440.38;94611;1192;97313;-67
2021/09/12 07:34:49;;;;;;;23.10;20.80;;;;;;;23.45;72.22;100442.65;94591;1192;87309;-68
2021/09/12 07:36:54;;;;;;;24.00;21.60;;;;;;;23.55;72.06;100442.99;94645;1192;93136;-67
2021/09/12 07:38:58;;;;;;;24.10;21.80;;;;;;;23.66;71.85;100444.45;94618;1192;79155;-68
2021/09/12 07:41:03;;;;;;;25.20;22.90;;;;;;;23.76;71.80;100446.39;94593;1192;81562;-67
2021/09/12 07:43:08;;;;;;;22.40;20.30;;;;;;;23.87;71.45;100443.35;94611;1192;98613;-67
2021/09/12 07:45:13;;;;;;;22.90;20.80;;;;;;;23.91;71.33;100449.70;94605;1192;86483;-66
2021/09/12 07:47:17;;;;;;;23.40;21.00;;;;;;;24.10;71.33;100448.45;94569;1192;94026;-65
2021/09/12 07:49:21;;;;;;;22.20;20.00;;;;;;;24.23;70.96;100449.89;94615;1192;78171;-66
2021/09/12 07:51:25;;;;;;;20.90;18.90;;;;;;;24.37;70.86;100447.55;94585;1192;80967;-66
2021/09/12 07:53:30;;;;;;;22.60;20.30;;;;;;;24.68;70.60;100447.58;94603;1192;98205;-67
2021/09/12 07:55:34;;;;;;;21.90;19.80;;;;;;;24.91;69.82;100448.02;94599;1192;86666;-69
2021/09/12 07:57:38;;;;;;;21.90;19.90;;;;;;;25.00;69.24;100447.50;94601;1192;93242;-67
2021/09/12 07:59:42;;;;;;;20.40;18.50;;;;;;;25.06;69.23;100442.21;94570;1192;79640;-67
2021/09/12 08:01:47;;;;;;;21.60;19.60;;;;;;;24.97;68.63;100441.54;94618;1192;82317;-66
2021/09/12 08:03:51;;;;;;;22.20;19.40;;;;;;;24.96;68.75;100446.31;94610;1192;97878;-65
2021/09/12 08:05:55;;;;;;;21.30;19.30;;;;;;;25.24;68.77;100443.55;94548;1192;87741;-67
2021/09/12 08:08:00;;;;;;;19.90;18.00;;;;;;;25.50;68.15;100442.98;94614;1192;94343;-65
2021/09/12 08:10:06;;;;;;;19.30;17.50;;;;;;;25.96;67.68;100446.82;94601;1192;78644;-62
2021/09/12 08:12:10;;;;;;;17.70;16.00;;;;;;;26.82;67.23;100444.80;94645;1192;81801;-67
2021/09/12 08:14:18;;;;;;;18.40;16.80;;;;;;;27.85;66.22;100442.68;94618;1192;96704;-66
2021/09/12 08:16:22;;;;;;;18.10;16.40;;;;;;;29.05;64.63;100443.76;94667;1192;86698;-66
2021/09/12 08:18:29;;;;;;;17.60;15.90;;;;;;;29.92;62.84;100439.67;94577;1192;93016;-67
2021/09/12 08:20:33;;;;;;;15.80;14.40;;;;;;;30.82;61.32;100443.59;94571;1192;79779;-68
2021/09/12 08:22:37;;;;;;;15.30;14.00;;;;;;;31.65;59.96;100440.98;94599;1192;81889;-67
2021/09/12 08:24:42;;;;;;;15.60;14.30;;;;;;;32.15;58.82;100439.38;94580;1192;98071;-69
2021/09/12 08:26:46;;;;;;;15.50;14.20;;;;;;;32.43;57.43;100439.80;94610;1192;87510;-67
2021/09/12 08:28:53;;;;;;;14.40;13.10;;;;;;;32.79;55.90;100443.16;94593;1192;94340;-68
2021/09/12 08:30:57;;;;;;;14.50;13.30;;;;;;;32.91;54.88;100442.42;94576;1177;79149;-67
2021/09/12 08:33:08;;;;;;;14.90;13.60;;;;;;;33.01;53.95;100447.58;94609;1193;81685;-67
2021/09/12 08:35:17;;;;;;;14.40;13.10;;;;;;;33.21;53.01;100443.80;94626;1192;98296;-67
2021/09/12 08:37:21;;;;;;;14.70;13.30;;;;;;;33.20;52.36;100444.50;94597;1192;88662;-67
2021/09/12 08:39:25;;;;;;;14.70;13.50;;;;;;;33.61;52.06;100444.19;94612;1192;93686;-67
2021/09/12 08:41:31;;;;;;;15.70;14.30;;;;;;;33.81;51.08;100447.05;94545;1192;79370;-68
2021/09/12 08:43:40;;;;;;;14.50;13.20;;;;;;;33.82;50.82;100443.33;94621;1192;80580;-67
2021/09/12 08:45:44;;;;;;;13.90;12.70;;;;;;;33.95;50.05;100442.77;94579;1192;98593;-68
2021/09/12 08:47:48;;;;;;;15.60;14.10;;;;;;;33.90;49.48;100439.84;94623;1192;86812;-68
2021/09/12 08:49:53;;;;;;;14.80;13.40;;;;;;;33.73;48.85;100441.79;94596;1192;93451;-69
2021/09/12 08:51:58;;;;;;;14.60;13.40;;;;;;;33.61;48.62;100440.29;94557;1192;79903;-67
2021/09/12 08:54:04;;;;;;;14.60;13.30;;;;;;;33.21;48.42;100434.73;94600;1192;81207;-67
2021/09/12 08:56:09;;;;;;;13.50;12.30;;;;;;;32.99;48.91;100439.92;94549;1192;98887;-67
2021/09/12 08:58:14;;;;;;;13.30;12.00;;;;;;;33.33;48.83;100432.52;94622;1192;87827;-67
2021/09/12 09:00:22;;;;;;;12.60;11.40;;;;;;;33.13;48.39;100432.01;94565;1192;94475;-68
2021/09/12 09:02:28;;;;;;;14.90;13.60;;;;;;;32.51;48.17;100431.65;94575;1192;79262;-70
2021/09/12 09:04:35;;;;;;;14.20;13.00;;;;;;;31.64;48.32;100434.27;94575;1192;82538;-67
2021/09/12 09:06:42;;;;;;;13.30;12.00;;;;;;;30.75;49.03;100437.92;94576;1192;97807;-69
2021/09/12 09:08:55;;;;;;;12.40;11.30;;;;;;;29.98;50.33;100437.08;94588;1192;87300;-69
2021/09/12 09:11:03;;;;;;;12.30;11.30;;;;;;;29.65;50.87;100435.58;94559;1192;93810;-68
2021/09/12 09:13:30;;;;;;;12.70;11.50;;;;;;;29.20;51.52;100436.73;94628;1192;79339;-68
2021/09/12 09:15:41;;;;;;;14.60;13.30;;;;;;;28.73;52.16;100439.09;94556;1192;82090;-68
2021/09/12 09:17:48;;;;;;;15.40;13.90;;;;;;;28.17;52.97;100440.42;94557;1192;98157;-68
2021/09/12 09:19:54;;;;;;;15.10;13.80;;;;;;;27.68;53.72;100444.73;94601;1192;87939;-68
2021/09/12 09:21:59;;;;;;;16.10;14.70;;;;;;;27.47;54.58;100440.21;94547;1192;93759;-70
2021/09/12 09:24:16;;;;;;;15.30;13.90;;;;;;;27.37;55.39;100438.84;94543;1192;79723;-68
2021/09/12 09:26:23;;;;;;;14.60;13.30;;;;;;;27.35;56.16;100438.70;94576;1192;80613;-67
2021/09/12 09:28:28;;;;;;;15.40;14.00;;;;;;;27.51;56.28;100437.77;94577;1192;96632;-67